Time;durP1;ratioP1;P1;durP2;ratioP2;P2;SDS_P1;SDS_P2;PMS_P1;PMS_P2;Temp;Humidity;BMP_temperature;BMP_pressure;BME280_temperature;BME280_humidity;BME280_pressure;Samples;Min_cycle;Max_cycle;Signal;HPM_P1;HPM_P2
2023/02/14 00:17:12;;;;;;;21.67;8.85;;;;;;;;;;4922021;28;20052;-75
2023/02/14 00:19:41;;;;;;;19.60;9.45;;;;;;;;;;4961090;28;20058;-74
2023/02/14 00:22:10;;;;;;;21.75;9.35;;;;;;;;;;4959176;28;20046;-79
2023/02/14 00:24:37;;;;;;;23.23;9.65;;;;;;;;;;4959756;28;20054;-75
2023/02/14 00:27:23;;;;;;;23.10;9.85;;;;;;;;;;4982684;28;20078;-81
2023/02/14 00:30:03;;;;;;;19.98;8.95;;;;;;;;;;4923485;28;20084;-81
2023/02/14 00:32:32;;;;;;;20.27;8.93;;;;;;;;;;4909092;28;20058;-79
2023/02/14 00:34:59;;;;;;;22.23;9.43;;;;;;;;;;4939804;28;20064;-77
2023/02/14 00:53:09;;;;;;;20.13;9.02;;;;;;;;;;4953074;28;20493;-71
2023/02/14 00:56:01;;;;;;;20.73;8.80;;;;;;;;;;4903374;28;20348;-77
2023/02/14 00:58:34;;;;;;;20.80;9.55;;;;;;;;;;4880873;28;20073;-76
2023/02/14 01:01:06;;;;;;;20.52;9.07;;;;;;;;;;4953195;28;20187;-75
2023/02/14 01:03:33;;;;;;;19.83;8.60;;;;;;;;;;4957749;28;20065;-74
2023/02/14 01:06:02;;;;;;;22.13;9.32;;;;;;;;;;4924399;28;20149;-71
2023/02/14 01:08:30;;;;;;;22.48;9.10;;;;;;;;;;4910737;28;20065;-74
2023/02/14 01:10:57;;;;;;;19.38;9.13;;;;;;;;;;4919870;28;20151;-80
2023/02/14 01:13:24;;;;;;;21.73;9.30;;;;;;;;;;4966770;28;20115;-78
2023/02/14 01:15:51;;;;;;;21.08;8.98;;;;;;;;;;4976370;28;20114;-82
2023/02/14 01:18:18;;;;;;;23.20;9.35;;;;;;;;;;4985684;28;20164;-74
2023/02/14 01:20:46;;;;;;;23.02;9.30;;;;;;;;;;4990487;28;20137;-74
2023/02/14 01:23:15;;;;;;;22.75;9.18;;;;;;;;;;4994703;28;20061;-75
2023/02/14 01:25:50;;;;;;;18.90;8.95;;;;;;;;;;4975666;28;20083;-82
2023/02/14 01:28:16;;;;;;;21.13;9.95;;;;;;;;;;4958263;28;20056;-80
2023/02/14 01:30:43;;;;;;;19.50;9.25;;;;;;;;;;5020529;28;20052;-70
2023/02/14 01:33:11;;;;;;;23.02;8.93;;;;;;;;;;4977012;28;20053;-80
2023/02/14 01:35:44;;;;;;;20.27;8.68;;;;;;;;;;4946826;28;20105;-72
2023/02/14 01:38:13;;;;;;;21.77;9.32;;;;;;;;;;4921182;28;20050;-77
2023/02/14 01:40:42;;;;;;;19.85;8.85;;;;;;;;;;4953996;28;20046;-69
2023/02/14 01:43:19;;;;;;;22.10;8.98;;;;;;;;;;4997718;28;20041;-70
2023/02/14 01:45:45;;;;;;;19.67;9.25;;;;;;;;;;4995781;28;20156;-79
2023/02/14 01:48:12;;;;;;;20.35;9.05;;;;;;;;;;4967243;28;20074;-74
2023/02/14 01:50:43;;;;;;;22.83;9.48;;;;;;;;;;4989254;28;20521;-73
2023/02/14 01:53:31;;;;;;;20.10;8.90;;;;;;;;;;4923972;28;20064;-73
2023/02/14 01:56:04;;;;;;;22.60;8.90;;;;;;;;;;4920817;28;20199;-72
2023/02/14 01:58:35;;;;;;;20.90;9.25;;;;;;;;;;4915048;28;20154;-75
2023/02/14 02:01:03;;;;;;;21.60;8.57;;;;;;;;;;4919273;28;21506;-75
2023/02/14 02:03:35;;;;;;;22.88;8.65;;;;;;;;;;4971278;28;20091;-80
2023/02/14 02:06:24;;;;;;;20.15;9.15;;;;;;;;;;4979664;28;20151;-72
2023/02/14 02:08:55;;;;;;;20.88;8.68;;;;;;;;;;4971313;28;20056;-79
2023/02/14 02:11:22;;;;;;;23.60;10.00;;;;;;;;;;4984383;28;20057;-77
2023/02/14 02:13:52;;;;;;;18.52;8.18;;;;;;;;;;4977819;28;20164;-73
2023/02/14 02:16:26;;;;;;;20.38;9.13;;;;;;;;;;4951086;28;20077;-68
2023/02/14 02:19:02;;;;;;;26.63;9.18;;;;;;;;;;4963108;28;20049;-73
2023/02/14 02:22:01;;;;;;;21.67;8.98;;;;;;;;;;4979679;28;20050;-72
2023/02/14 02:24:35;;;;;;;19.23;8.43;;;;;;;;;;4967109;28;20175;-70
2023/02/14 02:27:17;;;;;;;21.80;9.30;;;;;;;;;;4970679;28;20045;-76
2023/02/14 02:30:04;;;;;;;21.25;8.93;;;;;;;;;;4972992;28;20050;-70
2023/02/14 02:32:44;;;;;;;20.48;8.43;;;;;;;;;;4952315;28;20050;-73
2023/02/14 02:35:31;;;;;;;18.65;8.27;;;;;;;;;;4984822;28;20082;-70
2023/02/14 02:37:59;;;;;;;;;;;;;;;;;;4960337;28;20054;-78
2023/02/14 02:40:33;;;;;;;17.08;7.38;;;;;;;;;;4992920;28;19925;-72
2023/02/14 02:43:06;;;;;;;15.80;7.25;;;;;;;;;;4948558;28;20054;-75
2023/02/14 02:46:46;;;;;;;19.55;8.55;;;;;;;;;;4980399;28;20053;-74
2023/02/14 02:48:32;;;;;;;18.83;8.05;;;;;;;;;;4962986;28;20053;-76
2023/02/14 02:54:04;;;;;;;18.10;8.43;;;;;;;;;;4962118;28;20218;-76
2023/02/14 02:56:48;;;;;;;22.88;8.65;;;;;;;;;;4916664;28;20190;-75
2023/02/14 02:59:19;;;;;;;19.65;8.10;;;;;;;;;;4922240;28;20075;-73
2023/02/14 03:07:37;;;;;;;19.60;8.32;;;;;;;;;;4990589;28;20453;-72
2023/02/14 03:10:06;;;;;;;18.13;8.18;;;;;;;;;;4972953;28;20081;-72
2023/02/14 03:12:52;;;;;;;18.63;8.63;;;;;;;;;;4960990;28;20050;-71
2023/02/14 03:15:34;;;;;;;22.20;9.30;;;;;;;;;;4967355;28;20061;-71
2023/02/14 03:21:09;;;;;;;18.77;8.18;;;;;;;;;;4935269;28;20054;-80
2023/02/14 03:26:10;;;;;;;24.00;8.43;;;;;;;;;;4916004;28;20066;-72
2023/02/14 03:28:41;;;;;;;21.73;9.13;;;;;;;;;;4919306;28;20067;-73
2023/02/14 03:31:11;;;;;;;19.42;8.90;;;;;;;;;;4968552;28;20050;-70
2023/02/14 03:33:44;;;;;;;21.33;8.18;;;;;;;;;;4911025;28;20150;-72
2023/02/14 03:36:20;;;;;;;18.67;8.07;;;;;;;;;;4901961;28;20062;-71
2023/02/14 03:44:01;;;;;;;22.73;8.68;;;;;;;;;;4962651;28;20462;-70
2023/02/14 03:46:32;;;;;;;19.10;7.50;;;;;;;;;;4989001;28;20059;-69
2023/02/14 03:49:01;;;;;;;15.75;6.95;;;;;;;;;;4961232;28;20042;-68
2023/02/14 03:51:33;;;;;;;17.95;7.95;;;;;;;;;;4996323;28;20315;-71
2023/02/14 03:54:04;;;;;;;16.88;7.32;;;;;;;;;;4893832;28;20162;-72
2023/02/14 03:56:37;;;;;;;19.70;7.18;;;;;;;;;;4897612;28;20056;-69
2023/02/14 03:59:07;;;;;;;19.35;7.82;;;;;;;;;;4889878;28;20123;-69
2023/02/14 04:01:37;;;;;;;16.38;7.07;;;;;;;;;;4880463;28;20079;-75
2023/02/14 04:04:05;;;;;;;17.48;7.50;;;;;;;;;;4914838;28;20104;-75
2023/02/14 04:06:32;;;;;;;22.42;8.27;;;;;;;;;;4925983;28;20050;-73
2023/02/14 04:09:00;;;;;;;18.85;8.23;;;;;;;;;;4946383;28;20062;-73
2023/02/14 04:11:27;;;;;;;17.83;7.13;;;;;;;;;;4949610;28;20420;-75
2023/02/14 04:13:53;;;;;;;17.65;7.50;;;;;;;;;;4931459;28;20301;-68
2023/02/14 04:16:21;;;;;;;16.70;7.70;;;;;;;;;;4986421;28;20173;-74
2023/02/14 04:21:37;;;;;;;15.15;7.47;;;;;;;;;;4923100;28;20924;-73
2023/02/14 04:29:09;;;;;;;14.13;6.45;;;;;;;;;;4849731;29;20056;-71
2023/02/14 04:31:41;;;;;;;15.57;6.97;;;;;;;;;;4894562;29;20160;-75
2023/02/14 04:34:08;;;;;;;16.63;7.35;;;;;;;;;;4887849;28;20067;-70
2023/02/14 04:36:36;;;;;;;16.95;7.25;;;;;;;;;;4975329;28;20054;-67
2023/02/14 04:39:03;;;;;;;17.85;7.18;;;;;;;;;;4974413;28;20120;-72
2023/02/14 04:41:31;;;;;;;15.32;6.88;;;;;;;;;;4966705;28;20300;-74
2023/02/14 04:43:58;;;;;;;16.05;7.30;;;;;;;;;;4938473;28;20058;-69
2023/02/14 04:46:25;;;;;;;17.70;7.13;;;;;;;;;;4966648;28;20493;-67
2023/02/14 04:48:54;;;;;;;16.88;7.03;;;;;;;;;;4968068;28;20045;-75
2023/02/14 04:51:26;;;;;;;17.75;6.88;;;;;;;;;;4967231;28;20046;-76
2023/02/14 05:03:38;;;;;;;17.80;7.20;;;;;;;;;;4844102;28;20060;-73
2023/02/14 05:06:06;;;;;;;14.63;6.60;;;;;;;;;;4893786;28;20056;-76
2023/02/14 05:08:34;;;;;;;16.30;6.97;;;;;;;;;;4914089;28;20075;-74
2023/02/14 05:11:03;;;;;;;15.70;6.80;;;;;;;;;;4936044;28;20526;-70
2023/02/14 05:13:30;;;;;;;15.20;6.93;;;;;;;;;;4960410;28;20057;-68
2023/02/14 05:16:00;;;;;;;16.05;6.80;;;;;;;;;;4943011;28;20054;-72
2023/02/14 05:18:27;;;;;;;17.80;6.93;;;;;;;;;;4971321;28;20045;-74
2023/02/14 05:20:54;;;;;;;14.45;6.78;;;;;;;;;;4959331;28;20063;-70
2023/02/14 05:23:23;;;;;;;16.35;7.05;;;;;;;;;;4958409;28;20058;-70
2023/02/14 05:25:52;;;;;;;20.02;6.68;;;;;;;;;;4960179;28;20062;-72
2023/02/14 05:28:21;;;;;;;18.33;7.30;;;;;;;;;;4942773;28;20370;-77
2023/02/14 05:30:47;;;;;;;;;;;;;;;;;;4927250;28;20047;-70
2023/02/14 05:33:18;;;;;;;12.40;5.78;;;;;;;;;;4904689;28;19931;-74
2023/02/14 05:41:06;;;;;;;16.40;7.55;;;;;;;;;;5002465;27;20471;-77
2023/02/14 05:43:42;;;;;;;17.83;6.68;;;;;;;;;;4982071;28;20046;-78
2023/02/14 05:46:13;;;;;;;18.90;7.03;;;;;;;;;;4932604;28;20049;-79
2023/02/14 05:54:07;;;;;;;14.65;6.15;;;;;;;;;;4999797;27;20577;-80
2023/02/14 06:07:29;;;;;;;12.93;5.60;;;;;;;;;;4846945;28;20122;-75
2023/02/14 06:09:57;;;;;;;13.65;5.82;;;;;;;;;;4913956;28;20154;-74
2023/02/14 06:12:35;;;;;;;14.15;6.35;;;;;;;;;;4884305;28;20135;-74
2023/02/14 06:20:33;;;;;;;14.30;6.05;;;;;;;;;;5030417;27;20167;-72
2023/02/14 06:23:02;;;;;;;15.20;6.65;;;;;;;;;;4998213;28;20048;-76
2023/02/14 06:25:33;;;;;;;16.05;6.30;;;;;;;;;;5015729;28;20060;-75
2023/02/14 06:28:13;;;;;;;16.48;6.63;;;;;;;;;;4952054;28;20058;-79
2023/02/14 06:41:04;;;;;;;14.38;6.53;;;;;;;;;;4876699;29;20160;-77
2023/02/14 06:48:46;;;;;;;16.58;6.22;;;;;;;;;;5009101;27;20904;-69
2023/02/14 06:51:15;;;;;;;18.00;5.95;;;;;;;;;;4977302;28;20053;-68
2023/02/14 06:53:50;;;;;;;15.00;6.22;;;;;;;;;;5004682;28;20059;-75
2023/02/14 06:56:22;;;;;;;14.20;6.45;;;;;;;;;;5005408;28;20053;-76
2023/02/14 06:58:52;;;;;;;13.40;6.55;;;;;;;;;;4952857;28;20098;-72
2023/02/14 07:01:19;;;;;;;16.05;6.53;;;;;;;;;;4937037;28;20088;-75
2023/02/14 07:03:50;;;;;;;13.50;6.23;;;;;;;;;;4915897;28;20074;-72
2023/02/14 07:06:17;;;;;;;13.80;6.30;;;;;;;;;;4887366;28;20043;-70
2023/02/14 07:08:51;;;;;;;15.27;6.85;;;;;;;;;;4871719;28;20157;-74
2023/02/14 07:11:20;;;;;;;17.25;6.95;;;;;;;;;;4902080;29;20058;-73
2023/02/14 07:13:49;;;;;;;15.63;6.40;;;;;;;;;;4906818;28;20223;-69
2023/02/14 07:16:16;;;;;;;14.25;6.68;;;;;;;;;;4893723;28;20055;-69
2023/02/14 07:23:46;;;;;;;15.27;6.50;;;;;;;;;;4865346;29;20084;-73
2023/02/14 07:26:30;;;;;;;12.90;5.82;;;;;;;;;;4890148;28;20302;-71
2023/02/14 07:28:58;;;;;;;16.08;6.38;;;;;;;;;;4894712;28;20146;-72
2023/02/14 07:31:25;;;;;;;15.45;6.65;;;;;;;;;;4893422;28;20066;-73
2023/02/14 07:33:53;;;;;;;13.65;6.53;;;;;;;;;;4972363;28;20111;-70
2023/02/14 07:36:20;;;;;;;16.67;6.50;;;;;;;;;;4980899;28;20068;-68
2023/02/14 07:38:48;;;;;;;14.45;6.47;;;;;;;;;;4984011;28;20066;-75
2023/02/14 07:41:22;;;;;;;16.30;6.70;;;;;;;;;;4965789;28;20062;-72
2023/02/14 07:44:11;;;;;;;;;;;;;;;;;;;;;
2023/02/14 07:49:42;;;;;;;15.73;6.57;;;;;;;;;;4970840;27;20513;-73
2023/02/14 07:52:12;;;;;;;17.52;6.75;;;;;;;;;;4943124;28;20062;-77
2023/02/14 07:54:47;;;;;;;12.65;6.22;;;;;;;;;;4923362;28;20039;-72
2023/02/14 08:02:40;;;;;;;13.40;6.13;;;;;;;;;;4916542;28;20141;-76
2023/02/14 08:05:21;;;;;;;15.60;6.18;;;;;;;;;;4934861;28;20055;-70
2023/02/14 08:07:50;;;;;;;14.30;6.38;;;;;;;;;;4948815;28;20050;-77
2023/02/14 08:10:25;;;;;;;14.15;6.25;;;;;;;;;;4975710;28;20146;-74
2023/02/14 08:13:16;;;;;;;16.13;6.22;;;;;;;;;;4995625;28;20062;-74
2023/02/14 08:18:33;;;;;;;13.88;6.47;;;;;;;;;;4926847;28;20100;-75
2023/02/14 08:23:35;;;;;;;16.90;6.60;;;;;;;;;;4885443;28;20165;-73
2023/02/14 08:26:05;;;;;;;14.80;6.10;;;;;;;;;;4907779;28;20055;-77
2023/02/14 08:33:54;;;;;;;14.15;6.35;;;;;;;;;;4979960;27;20470;-78
2023/02/14 08:39:03;;;;;;;12.95;5.53;;;;;;;;;;4909464;28;20082;-72
2023/02/14 08:41:34;;;;;;;16.70;6.90;;;;;;;;;;4938639;28;20054;-72
2023/02/14 08:44:03;;;;;;;18.73;6.80;;;;;;;;;;4889665;28;20102;-68
2023/02/14 08:46:30;;;;;;;;;;;;;;;;;;4933766;28;20058;-69
2023/02/14 08:49:02;;;;;;;12.65;5.97;;;;;;;;;;4963292;28;20010;-69
2023/02/14 08:51:30;;;;;;;19.33;7.43;;;;;;;;;;4994256;28;20373;-77
2023/02/14 08:54:02;;;;;;;16.52;7.57;;;;;;;;;;4948551;28;20145;-74
2023/02/14 08:56:29;;;;;;;16.63;7.40;;;;;;;;;;4917212;28;20055;-68
2023/02/14 08:58:56;;;;;;;15.23;6.55;;;;;;;;;;4859484;28;20070;-73
2023/02/14 09:01:27;;;;;;;17.30;6.90;;;;;;;;;;4947667;28;20093;-71
2023/02/14 09:04:00;;;;;;;16.67;6.95;;;;;;;;;;4937177;28;20108;-69
2023/02/14 09:11:47;;;;;;;18.95;7.07;;;;;;;;;;5054099;27;20609;-74
2023/02/14 09:14:14;;;;;;;16.00;7.25;;;;;;;;;;4990529;28;20053;-70
2023/02/14 09:16:44;;;;;;;15.45;7.03;;;;;;;;;;4951266;28;20112;-69
2023/02/14 09:19:17;;;;;;;15.47;7.33;;;;;;;;;;4949286;28;20057;-74
2023/02/14 09:21:48;;;;;;;14.93;7.38;;;;;;;;;;4939450;28;20141;-66
2023/02/14 09:24:15;;;;;;;16.25;7.43;;;;;;;;;;4950043;28;20067;-74
2023/02/14 09:26:45;;;;;;;18.65;7.85;;;;;;;;;;4998157;28;20073;-72
2023/02/14 09:29:27;;;;;;;17.85;7.63;;;;;;;;;;4983789;28;20053;-76
2023/02/14 09:31:57;;;;;;;15.05;7.28;;;;;;;;;;4987529;28;20168;-78
2023/02/14 09:34:33;;;;;;;16.27;6.93;;;;;;;;;;4933857;28;20056;-77
2023/02/14 09:42:26;;;;;;;15.57;7.38;;;;;;;;;;5017145;27;20640;-69
2023/02/14 09:44:57;;;;;;;17.42;7.63;;;;;;;;;;4977876;28;20037;-77
2023/02/14 09:47:33;;;;;;;20.23;7.80;;;;;;;;;;4985521;28;20054;-71
2023/02/14 09:50:00;;;;;;;17.02;7.43;;;;;;;;;;5001001;28;20061;-69
2023/02/14 09:52:28;;;;;;;16.42;7.05;;;;;;;;;;5009892;28;20057;-75
2023/02/14 09:55:03;;;;;;;16.98;7.35;;;;;;;;;;5006341;28;20140;-70
2023/02/14 10:02:55;;;;;;;14.05;7.05;;;;;;;;;;4979925;28;20422;-71
2023/02/14 10:05:27;;;;;;;17.90;7.75;;;;;;;;;;4931505;28;20049;-74
2023/02/14 10:08:00;;;;;;;16.27;7.95;;;;;;;;;;4957887;28;20080;-75
2023/02/14 10:10:29;;;;;;;18.50;8.25;;;;;;;;;;4958433;28;20060;-78
2023/02/14 10:13:03;;;;;;;18.95;8.10;;;;;;;;;;4966763;28;20135;-73
2023/02/14 10:15:35;;;;;;;16.33;7.82;;;;;;;;;;4943739;28;20136;-66
2023/02/14 10:18:19;;;;;;;15.63;7.90;;;;;;;;;;4908469;28;20067;-73
2023/02/14 10:20:58;;;;;;;18.73;8.48;;;;;;;;;;4867182;28;20055;-72
2023/02/14 10:23:27;;;;;;;17.40;8.27;;;;;;;;;;4910519;28;20051;-70
2023/02/14 10:25:59;;;;;;;17.15;7.72;;;;;;;;;;5003020;28;20057;-77
2023/02/14 10:28:30;;;;;;;16.70;7.90;;;;;;;;;;4915665;28;20064;-75
2023/02/14 10:31:00;;;;;;;18.13;7.70;;;;;;;;;;4974400;28;20057;-71
2023/02/14 10:33:32;;;;;;;18.83;8.68;;;;;;;;;;4975605;28;20406;-74
2023/02/14 10:36:06;;;;;;;24.48;9.00;;;;;;;;;;4954230;28;20058;-73
2023/02/14 10:38:37;;;;;;;18.60;8.90;;;;;;;;;;4933351;28;20061;-68
2023/02/14 10:41:17;;;;;;;17.42;8.60;;;;;;;;;;4965833;28;20106;-71
2023/02/14 10:43:52;;;;;;;19.67;8.35;;;;;;;;;;4962901;28;20044;-74
2023/02/14 10:46:38;;;;;;;22.55;8.32;;;;;;;;;;4956646;28;20050;-82
2023/02/14 10:51:49;;;;;;;18.85;8.65;;;;;;;;;;4813871;29;20040;-67
2023/02/14 10:54:25;;;;;;;21.15;9.02;;;;;;;;;;4877781;29;20054;-73
2023/02/14 10:56:58;;;;;;;21.05;9.15;;;;;;;;;;4887240;28;20062;-72
2023/02/14 10:59:31;;;;;;;22.65;8.52;;;;;;;;;;4943876;28;20054;-76
2023/02/14 11:01:59;;;;;;;22.08;8.57;;;;;;;;;;5000890;28;20049;-72
2023/02/14 11:04:30;;;;;;;18.35;8.43;;;;;;;;;;4966876;28;20085;-70
2023/02/14 11:06:57;;;;;;;;;;;;;;;;;;4967508;28;20088;-70
2023/02/14 11:09:25;;;;;;;19.70;8.18;;;;;;;;;;4984800;28;19952;-77
2023/02/14 11:11:54;;;;;;;21.33;8.63;;;;;;;;;;4945847;28;20065;-77
2023/02/14 11:14:32;;;;;;;22.75;8.75;;;;;;;;;;4903097;28;20043;-69
2023/02/14 11:16:59;;;;;;;21.60;9.15;;;;;;;;;;4935935;28;20147;-76
2023/02/14 11:19:28;;;;;;;22.42;10.25;;;;;;;;;;4889400;28;20423;-69
2023/02/14 11:21:55;;;;;;;24.48;9.30;;;;;;;;;;4931711;28;20070;-73
2023/02/14 11:24:27;;;;;;;22.83;9.05;;;;;;;;;;4899185;28;20069;-70
2023/02/14 11:26:55;;;;;;;14.93;7.80;;;;;;;;;;4908010;28;20050;-74
2023/02/14 11:29:25;;;;;;;19.50;9.35;;;;;;;;;;4928533;28;20141;-66
2023/02/14 11:31:55;;;;;;;20.02;9.77;;;;;;;;;;4917176;28;20198;-73
2023/02/14 11:34:27;;;;;;;20.00;9.45;;;;;;;;;;4977176;28;20065;-72
2023/02/14 11:36:53;;;;;;;25.40;9.48;;;;;;;;;;4962787;28;20165;-70
2023/02/14 11:39:25;;;;;;;20.23;9.15;;;;;;;;;;4957729;28;20120;-74
2023/02/14 11:42:09;;;;;;;22.92;10.23;;;;;;;;;;4942086;28;20138;-66
2023/02/14 11:44:55;;;;;;;17.83;8.27;;;;;;;;;;4898035;28;20055;-69
2023/02/14 11:47:30;;;;;;;22.25;9.68;;;;;;;;;;4858620;29;20412;-75
2023/02/14 11:49:57;;;;;;;17.75;8.88;;;;;;;;;;4844887;29;20057;-71
2023/02/14 11:52:29;;;;;;;20.30;9.93;;;;;;;;;;4856743;29;20060;-74
2023/02/14 11:54:58;;;;;;;24.08;9.93;;;;;;;;;;4887750;29;20130;-74
2023/02/14 11:57:35;;;;;;;20.45;9.75;;;;;;;;;;4859731;29;20051;-75
2023/02/14 12:05:32;;;;;;;22.00;9.65;;;;;;;;;;5060741;27;20450;-75
2023/02/14 12:08:01;;;;;;;21.30;9.30;;;;;;;;;;5018328;28;21093;-77
2023/02/14 12:10:30;;;;;;;22.27;9.55;;;;;;;;;;5014543;28;20049;-72
2023/02/14 12:13:02;;;;;;;20.98;9.75;;;;;;;;;;5048944;28;20695;-72
2023/02/14 12:15:33;;;;;;;20.27;9.45;;;;;;;;;;5039500;28;20052;-81
2023/02/14 12:18:06;;;;;;;22.75;9.80;;;;;;;;;;5028140;28;20179;-71
2023/02/14 12:20:41;;;;;;;20.58;9.98;;;;;;;;;;5007083;28;20061;-80
2023/02/14 12:23:14;;;;;;;21.10;9.93;;;;;;;;;;5034829;28;20045;-71
2023/02/14 12:25:46;;;;;;;23.85;10.02;;;;;;;;;;5010437;28;20052;-70
2023/02/14 12:28:17;;;;;;;22.95;10.80;;;;;;;;;;5035843;28;20059;-70
2023/02/14 12:30:44;;;;;;;21.98;10.57;;;;;;;;;;4982732;28;20049;-72
2023/02/14 12:38:39;;;;;;;22.60;10.88;;;;;;;;;;4996563;27;20449;-71
2023/02/14 12:41:16;;;;;;;23.70;10.10;;;;;;;;;;4994750;28;20493;-75
2023/02/14 12:43:49;;;;;;;22.70;10.20;;;;;;;;;;4986992;28;20207;-71
2023/02/14 12:46:27;;;;;;;20.05;10.10;;;;;;;;;;5018127;28;20046;-73
2023/02/14 12:49:02;;;;;;;21.63;10.45;;;;;;;;;;4963634;28;20069;-76
2023/02/14 12:51:33;;;;;;;23.80;10.35;;;;;;;;;;4965642;28;20129;-73
2023/02/14 12:54:21;;;;;;;21.25;10.23;;;;;;;;;;4911439;28;20118;-70
2023/02/14 12:56:50;;;;;;;23.42;10.70;;;;;;;;;;4936279;28;20161;-75
2023/02/14 12:59:24;;;;;;;25.45;10.27;;;;;;;;;;4927704;28;20137;-71
2023/02/14 13:02:11;;;;;;;23.27;10.38;;;;;;;;;;4963453;28;20149;-73
2023/02/14 13:05:08;;;;;;;22.15;10.68;;;;;;;;;;4993111;28;20057;-72
2023/02/14 13:07:43;;;;;;;20.75;10.25;;;;;;;;;;5008368;28;20070;-70
2023/02/14 13:10:23;;;;;;;21.77;10.60;;;;;;;;;;4982660;28;20063;-68
2023/02/14 13:12:53;;;;;;;22.70;10.13;;;;;;;;;;4974660;28;20080;-72
2023/02/14 13:15:28;;;;;;;22.65;10.68;;;;;;;;;;4921201;28;20081;-74
2023/02/14 13:18:17;;;;;;;23.90;10.20;;;;;;;;;;4993431;28;20203;-69
2023/02/14 13:20:49;;;;;;;23.33;10.70;;;;;;;;;;5011830;28;20049;-74
2023/02/14 13:23:22;;;;;;;19.38;9.68;;;;;;;;;;4999062;28;20061;-75
2023/02/14 13:25:56;;;;;;;21.95;10.23;;;;;;;;;;5020391;28;20076;-71
2023/02/14 13:28:25;;;;;;;22.00;10.15;;;;;;;;;;5028203;28;20190;-72
2023/02/14 13:30:53;;;;;;;20.83;10.23;;;;;;;;;;5024457;28;20043;-70
2023/02/14 13:33:25;;;;;;;20.85;9.90;;;;;;;;;;4973149;28;20091;-68
2023/02/14 13:35:59;;;;;;;20.58;10.18;;;;;;;;;;5023554;28;20063;-75
2023/02/14 13:38:30;;;;;;;21.58;10.13;;;;;;;;;;4976236;28;20159;-71
2023/02/14 13:40:58;;;;;;;22.17;11.00;;;;;;;;;;4969705;28;20053;-75
2023/02/14 13:43:43;;;;;;;21.23;10.38;;;;;;;;;;4950347;28;20096;-74
2023/02/14 13:46:19;;;;;;;21.92;10.45;;;;;;;;;;5003109;28;20081;-68
2023/02/14 13:48:59;;;;;;;24.52;11.10;;;;;;;;;;4935206;28;20069;-74
2023/02/14 13:51:43;;;;;;;23.63;10.30;;;;;;;;;;4906463;28;20053;-71
2023/02/14 13:54:22;;;;;;;25.05;11.13;;;;;;;;;;4911245;28;20070;-69
2023/02/14 13:56:53;;;;;;;23.05;10.48;;;;;;;;;;4917150;28;20061;-78
2023/02/14 13:59:27;;;;;;;21.80;10.73;;;;;;;;;;4959868;28;20121;-72
2023/02/14 14:01:55;;;;;;;22.95;10.23;;;;;;;;;;4985996;28;20057;-73
2023/02/14 14:04:36;;;;;;;19.73;10.30;;;;;;;;;;4958756;28;20112;-73
2023/02/14 14:07:20;;;;;;;25.05;10.80;;;;;;;;;;4912844;28;20058;-72
2023/02/14 14:10:00;;;;;;;20.58;10.10;;;;;;;;;;4921252;28;20133;-76
2023/02/14 14:12:42;;;;;;;21.15;10.93;;;;;;;;;;4940929;28;20064;-69
2023/02/14 14:15:20;;;;;;;21.90;10.95;;;;;;;;;;4959841;28;20046;-71
2023/02/14 14:22:04;;;;;;;24.85;11.20;;;;;;;;;;4983166;28;20609;-73
2023/02/14 14:24:33;;;;;;;23.58;11.40;;;;;;;;;;4949583;28;20043;-73
2023/02/14 14:27:05;;;;;;;21.33;11.20;;;;;;;;;;4942185;28;20058;-73
2023/02/14 14:29:37;;;;;;;23.33;11.57;;;;;;;;;;4956640;28;20062;-73
2023/02/14 14:32:11;;;;;;;26.10;11.82;;;;;;;;;;4924456;28;20067;-74
2023/02/14 14:34:47;;;;;;;24.38;12.05;;;;;;;;;;4928261;28;20122;-77
2023/02/14 14:37:25;;;;;;;22.95;11.63;;;;;;;;;;4939562;28;20059;-69
2023/02/14 14:39:53;;;;;;;24.58;11.77;;;;;;;;;;4885942;28;20525;-81
2023/02/14 14:42:22;;;;;;;23.42;11.63;;;;;;;;;;4936379;28;20054;-74
2023/02/14 14:44:51;;;;;;;23.63;11.25;;;;;;;;;;4960146;28;20116;-79
2023/02/14 14:47:23;;;;;;;23.33;10.35;;;;;;;;;;4945037;28;20510;-74
2023/02/14 14:49:53;;;;;;;24.50;11.63;;;;;;;;;;4918969;28;20059;-77
2023/02/14 14:57:59;;;;;;;25.63;11.75;;;;;;;;;;4983244;27;20146;-70
2023/02/14 15:00:35;;;;;;;22.45;11.52;;;;;;;;;;4848508;29;20041;-75
2023/02/14 15:14:21;;;;;;;25.27;11.50;;;;;;;;;;4922737;28;20069;-70
2023/02/14 15:16:59;;;;;;;23.85;12.02;;;;;;;;;;4947543;28;20055;-72
2023/02/14 15:19:45;;;;;;;25.15;11.65;;;;;;;;;;4974294;28;20059;-70
2023/02/14 15:22:21;;;;;;;24.13;11.65;;;;;;;;;;4972768;28;20157;-71
2023/02/14 15:24:52;;;;;;;25.00;11.45;;;;;;;;;;4977059;28;20240;-70
2023/02/14 15:27:23;;;;;;;22.60;11.30;;;;;;;;;;4962764;28;20049;-69
2023/02/14 15:30:13;;;;;;;25.13;11.65;;;;;;;;;;4965111;28;20054;-72
2023/02/14 15:32:42;;;;;;;22.25;11.48;;;;;;;;;;4925955;28;20158;-72
2023/02/14 15:35:35;;;;;;;;;;;;;;;;;;;;;
2023/02/14 15:38:06;;;;;;;23.30;11.60;;;;;;;;;;4961558;28;20180;-72
2023/02/14 15:40:33;;;;;;;23.40;11.70;;;;;;;;;;4934701;28;20619;-66
2023/02/14 15:43:23;;;;;;;21.85;11.57;;;;;;;;;;4948505;28;20093;-70
2023/02/14 15:45:55;;;;;;;27.88;12.20;;;;;;;;;;4940868;28;20082;-66
2023/02/14 15:48:28;;;;;;;23.05;11.48;;;;;;;;;;4919665;28;20055;-70
2023/02/14 15:50:58;;;;;;;22.13;11.55;;;;;;;;;;4909159;28;20138;-73
2023/02/14 15:53:43;;;;;;;23.65;10.98;;;;;;;;;;4939990;28;20055;-70
2023/02/14 15:56:18;;;;;;;23.27;11.18;;;;;;;;;;4960962;28;20046;-69
2023/02/14 15:58:46;;;;;;;19.33;10.48;;;;;;;;;;4960928;28;20236;-71
2023/02/14 16:01:34;;;;;;;21.67;11.05;;;;;;;;;;4949196;28;20141;-70
2023/02/14 16:04:17;;;;;;;20.95;10.20;;;;;;;;;;4868894;28;20143;-69
2023/02/14 16:12:55;;;;;;;21.70;11.00;;;;;;;;;;4948449;28;20412;-73
2023/02/14 16:18:41;;;;;;;;;;;;;;;;;;;;;
2023/02/14 16:26:37;;;;;;;22.42;10.57;;;;;;;;;;5016034;27;20447;-70
2023/02/14 16:29:22;;;;;;;23.33;11.35;;;;;;;;;;5014451;28;20049;-75
2023/02/14 16:31:54;;;;;;;24.67;11.40;;;;;;;;;;5008326;28;20036;-77
2023/02/14 16:34:21;;;;;;;22.85;10.65;;;;;;;;;;5013146;28;20084;-75
2023/02/14 16:36:49;;;;;;;23.48;10.48;;;;;;;;;;5048508;28;20414;-76
2023/02/14 16:39:37;;;;;;;22.27;10.32;;;;;;;;;;5020586;28;20149;-72
2023/02/14 16:42:13;;;;;;;19.40;9.93;;;;;;;;;;4988049;28;20057;-70
2023/02/14 16:47:31;;;;;;;22.75;10.40;;;;;;;;;;4550741;27;13459249;-74
2023/02/14 16:55:46;;;;;;;20.65;10.65;;;;;;;;;;4973445;28;20479;-69
2023/02/14 16:58:23;;;;;;;20.67;10.27;;;;;;;;;;4933867;28;20054;-73
2023/02/14 17:19:55;;;;;;;;;;;;;;;;;;;;;
2023/02/14 17:22:33;;;;;;;21.65;10.55;;;;;;;;;;6000526;23;20049;-73
2023/02/14 17:25:00;;;;;;;19.63;9.98;;;;;;;;;;6001348;23;20030;-74
2023/02/14 17:30:46;;;;;;;21.65;10.60;;;;;;;;;;5971838;23;20026;-70
2023/02/14 17:33:12;;;;;;;19.83;10.02;;;;;;;;;;6039220;23;20034;-73
2023/02/14 17:35:39;;;;;;;23.83;10.93;;;;;;;;;;6064083;23;20222;-70
2023/02/14 17:38:15;;;;;;;21.83;11.10;;;;;;;;;;6046950;23;20034;-76
2023/02/14 17:40:44;;;;;;;21.80;10.77;;;;;;;;;;6083315;23;20049;-70
2023/02/14 17:43:22;;;;;;;20.73;10.30;;;;;;;;;;6086937;23;20029;-70
2023/02/14 17:53:08;;;;;;;21.52;10.13;;;;;;;;;;5993813;23;20050;-70
2023/02/14 17:55:57;;;;;;;;;;;;;;;;;;;;;
2023/02/14 17:58:29;;;;;;;21.75;10.80;;;;;;;;;;6054566;23;20041;-77
2023/02/14 18:01:00;;;;;;;24.33;11.05;;;;;;;;;;6073059;23;20092;-79
2023/02/14 18:03:27;;;;;;;21.75;10.60;;;;;;;;;;6117785;23;20055;-73
2023/02/14 18:05:55;;;;;;;;;;;;;;;;;;6161020;23;20043;-82
2023/02/14 18:08:22;;;;;;;20.83;10.32;;;;;;;;;;6186163;23;19920;-75
2023/02/14 18:10:50;;;;;;;21.05;9.98;;;;;;;;;;6175106;23;20103;-74
2023/02/14 18:13:17;;;;;;;20.55;9.75;;;;;;;;;;6174240;22;20051;-75
2023/02/14 18:15:48;;;;;;;19.23;9.73;;;;;;;;;;6171141;23;20123;-75
2023/02/14 18:18:27;;;;;;;21.88;10.43;;;;;;;;;;6163137;23;20032;-73
2023/02/14 18:21:13;;;;;;;;;;;;;;;;;;6105735;23;20052;-71
2023/02/14 18:23:45;;;;;;;22.00;9.50;;;;;;;;;;6144308;23;19915;-69
2023/02/14 18:26:23;;;;;;;20.45;10.13;;;;;;;;;;6095508;23;20025;-72
2023/02/14 18:28:55;;;;;;;23.90;10.70;;;;;;;;;;6112927;23;20079;-70
2023/02/14 18:31:21;;;;;;;22.50;10.73;;;;;;;;;;6073359;23;20029;-76
2023/02/14 18:33:55;;;;;;;25.65;11.00;;;;;;;;;;6043868;23;20041;-72
2023/02/14 18:36:24;;;;;;;23.08;10.48;;;;;;;;;;6111357;23;20021;-70
2023/02/14 18:38:55;;;;;;;23.73;10.77;;;;;;;;;;6106712;23;20033;-70
2023/02/14 18:41:26;;;;;;;22.38;10.10;;;;;;;;;;6029928;23;20036;-69
2023/02/14 18:46:39;;;;;;;22.02;10.50;;;;;;;;;;6033393;23;20512;-73
2023/02/14 18:49:09;;;;;;;19.65;9.43;;;;;;;;;;6089720;23;20144;-76
2023/02/14 18:51:39;;;;;;;18.40;9.50;;;;;;;;;;6124831;23;20076;-71
2023/02/14 18:54:08;;;;;;;19.70;9.77;;;;;;;;;;6072365;23;20183;-70
2023/02/14 18:56:37;;;;;;;23.88;9.95;;;;;;;;;;6153301;23;20025;-70
2023/02/14 18:59:19;;;;;;;23.88;9.93;;;;;;;;;;6138543;23;20027;-74
2023/02/14 19:01:46;;;;;;;20.38;10.23;;;;;;;;;;6099467;23;20024;-74
2023/02/14 19:09:55;;;;;;;22.08;10.85;;;;;;;;;;5036764;27;20909;-72
2023/02/14 19:12:27;;;;;;;20.65;10.00;;;;;;;;;;4969135;28;20066;-71
2023/02/14 19:14:57;;;;;;;22.92;10.18;;;;;;;;;;5009825;28;20050;-75